Euro Snow — VQGH9 — position and weather

sailwx.info

Track history (hours):
 
Tides and Currents Weather Stations Pressure Air Temp Water Temp Dewpoint Dewpoint Depression Visibility Wind Speed Wind Dir Waves Ship Positions

Euro Snow

Last reported at 2014-Jul-25 01:29 UTC. Time now 2014-Jul-25 13:38 UTC.
Position N 39°38' W 009°43'.

Length 133 m; draft 7.4 m.

Type: Cargo ship. MMSI: 235613000.

Date/timePositionNaut miles runAvg speedWind from/ knotsBaromVisibWave heightAir tempDewpointWater temp
2014-Jul-25 01:29N 39°38' W 009°43'1414.5
2014-Jul-25 00:33N 39°24' W 009°43'5012.5
2014-Jul-24 20:33N 38°37' W 009°22'1414.2
2014-Jul-24 19:34N 38°43' W 009°06'0 0.0
2014-Jul-24 18:31N 38°44' W 009°06'0 0.0
2014-Jul-24 17:32N 38°44' W 009°06'0 0.0
2014-Jul-24 16:33N 38°44' W 009°06'0 0.0
2014-Jul-24 15:31N 38°44' W 009°06'0 0.0
2014-Jul-24 14:31N 38°44' W 009°06'0 0.0
2014-Jul-24 13:31N 38°44' W 009°06'0 0.0
2014-Jul-24 12:33N 38°44' W 009°06'0 0.0
2014-Jul-24 11:33N 38°44' W 009°06'0 0.0
2014-Jul-24 10:33N 38°44' W 009°06'0 0.0
2014-Jul-24 09:32N 38°44' W 009°06'0 0.0
2014-Jul-24 08:33N 38°44' W 009°06'0 0.0
2014-Jul-24 07:33N 38°44' W 009°06'2 1.7
2014-Jul-24 06:33N 38°42' W 009°08'2712.8
2014-Jul-24 04:26N 38°39' W 009°43'1615.1
2014-Jul-24 03:23N 38°55' W 009°44'156 5.1
2014-Jul-22 20:29N 41°27' W 008°58'1414.7
2014-Jul-22 19:33N 41°39' W 009°07'178 9.8
2014-Jul-22 01:26N 43°44' W 006°14'1516.5
2014-Jul-22 00:33N 43°42' W 005°54'1312.6
2014-Jul-21 23:33N 43°33' W 005°41'0 0.0
2014-Jul-21 18:34N 43°34' W 005°41'6 6.0
2014-Jul-21 17:34N 43°40' W 005°41'47013.3
2014-Jul-20 06:10N 50°29' W 000°02'1415.8
2014-Jul-20 05:18N 50°33' E 000°19'1115.0
2014-Jul-20 04:34N 50°36' E 000°36'1514.5
2014-Jul-20 03:33N 50°44' E 000°55'1815.1
2014-Jul-20 02:21N 50°55' E 001°18'1316.8
2014-Jul-20 01:33N 51°05' E 001°33'1717.4
2014-Jul-20 00:34N 51°18' E 001°51'1616.4
2014-Jul-19 23:34N 51°31' E 002°07'1615.6
2014-Jul-19 22:32N 51°43' E 002°24'2713.7
2014-Jul-19 20:33N 52°01' E 002°56'1714.9
2014-Jul-19 19:26N 52°03' E 003°23'1314.7
2014-Jul-19 18:33N 52°04' E 003°44'1414.4
2014-Jul-19 17:33N 51°59' E 004°05'2 1.5
2014-Jul-19 16:32N 51°58' E 004°03'0 0.0
2014-Jul-19 15:33N 51°58' E 004°03'0 0.0
2014-Jul-19 14:25N 51°58' E 004°03'0 0.0
2014-Jul-19 13:30N 51°58' E 004°03'0 0.0
2014-Jul-19 12:30N 51°58' E 004°03'0 0.0
2014-Jul-19 11:33N 51°58' E 004°03'0 0.0
2014-Jul-19 10:32N 51°58' E 004°03'0 0.0
2014-Jul-19 09:30N 51°58' E 004°03'0 0.0
2014-Jul-19 08:30N 51°58' E 004°03'0 0.0
2014-Jul-19 07:19N 51°58' E 004°03'0 0.0
2014-Jul-19 06:22N 51°58' E 004°03'0 0.0
2014-Jul-19 05:13N 51°58' E 004°03'0 0.0
2014-Jul-19 04:28N 51°58' E 004°03'0 0.0
2014-Jul-19 03:19N 51°58' E 004°03'0 0.0
2014-Jul-19 02:31N 51°58' E 004°03'0 0.0
2014-Jul-19 01:28N 51°58' E 004°03'0 0.0
2014-Jul-19 00:31N 51°58' E 004°03'0 0.0
2014-Jul-18 23:25N 51°58' E 004°03'0 0.0
2014-Jul-18 22:25N 51°58' E 004°03'2 1.8
2014-Jul-18 21:33N 51°58' E 004°05'1211.9
2014-Jul-18 20:33N 52°03' E 003°48'1212.0
2014-Jul-18 19:34N 52°15' E 003°47'1110.6
2014-Jul-18 18:33N 52°26' E 003°50'1111.0
2014-Jul-18 17:33N 52°37' E 003°52'1512.3
2014-Jul-18 16:22N 52°51' E 003°57'1012.3
2014-Jul-18 15:33N 52°60' E 004°06'1313.2
2014-Jul-18 14:34N 53°08' E 004°22'1313.1
2014-Jul-18 13:33N 53°20' E 004°30'1212.5
2014-Jul-18 12:34N 53°32' E 004°37'1414.3
2014-Jul-18 11:34N 53°46' E 004°45'1616.2
2014-Jul-18 10:34N 54°01' E 004°53'1716.4
2014-Jul-18 09:33N 54°17' E 005°03'1816.8
2014-Jul-18 08:28N 54°32' E 005°20'1617.1
2014-Jul-18 07:31N 54°46' E 005°35'3535.5
2014-Jul-18 06:32N 55°15' E 006°08'22 9.1
2014-Jul-18 04:09N 55°33' E 006°29'1317.0
2014-Jul-18 03:25N 55°44' E 006°41'15915.9
2014-Jul-17 17:26N 57°41' E 009°57'1415.7
2014-Jul-17 16:33N 57°48' E 010°20'1515.4
2014-Jul-17 15:34N 57°48' E 010°48'1615.6
2014-Jul-17 14:33N 57°42' E 011°15'1514.8
2014-Jul-17 13:34N 57°39' E 011°42'6 5.6
2014-Jul-17 12:33N 57°41' E 011°52'0 0.0
2014-Jul-17 11:33N 57°41' E 011°52'0 0.0
2014-Jul-17 10:32N 57°41' E 011°52'0 0.0
2014-Jul-17 09:32N 57°41' E 011°52'0 0.0
2014-Jul-17 08:32N 57°41' E 011°52'0 0.0
2014-Jul-17 07:32N 57°41' E 011°52'0 0.0
2014-Jul-17 06:32N 57°41' E 011°52'0 0.0
2014-Jul-17 05:32N 57°41' E 011°52'0 0.0
2014-Jul-17 04:33N 57°41' E 011°52'10 9.5
2014-Jul-17 03:33N 57°35' E 011°39'1515.2
2014-Jul-17 02:33N 57°19' E 011°39'1615.5
2014-Jul-17 01:33N 57°04' E 011°43'1515.3
2014-Jul-17 00:33N 56°49' E 011°52'1514.3
2014-Jul-16 23:30N 56°36' E 011°40'35 2.9
2014-Jul-16 11:19N 56°09' E 010°59'1013.2
2014-Jul-16 10:32N 56°18' E 011°10'2713.4
2014-Jul-16 08:33N 56°38' E 011°41'1212.4
2014-Jul-16 07:33N 56°49' E 011°50'1414.3
2014-Jul-16 06:33N 57°03' E 011°40'1414.0
2014-Jul-16 05:33N 57°16' E 011°32'1413.5
2014-Jul-16 04:33N 57°28' E 011°21'1413.5
2014-Jul-16 03:33N 57°38' E 011°04'1514.6
2014-Jul-16 02:33N 57°47' E 010°43'1615.6
2014-Jul-16 01:33N 57°43' E 010°14'  
Track history (hours):
 
Tides and Currents Weather Stations Pressure Air Temp Water Temp Dewpoint Dewpoint Depression Visibility Wind Speed Wind Dir Waves Ship Positions

Euro Snow

Last reported at 2014-Jul-25 01:29 UTC. Time now 2014-Jul-25 13:38 UTC.
Position N 39°38' W 009°43'.

Length 133 m; draft 7.4 m.

Type: Cargo ship. MMSI: 235613000.

Date/timePositionNaut miles runAvg speedWind from/ knotsBaromVisibWave heightAir tempDewpointWater temp
2014-Jul-25 01:29N 39°38' W 009°43'1414.5
2014-Jul-25 00:33N 39°24' W 009°43'5012.5
2014-Jul-24 20:33N 38°37' W 009°22'1414.2
2014-Jul-24 19:34N 38°43' W 009°06'0 0.0
2014-Jul-24 18:31N 38°44' W 009°06'0 0.0
2014-Jul-24 17:32N 38°44' W 009°06'0 0.0
2014-Jul-24 16:33N 38°44' W 009°06'0 0.0
2014-Jul-24 15:31N 38°44' W 009°06'0 0.0
2014-Jul-24 14:31N 38°44' W 009°06'0 0.0
2014-Jul-24 13:31N 38°44' W 009°06'0 0.0
2014-Jul-24 12:33N 38°44' W 009°06'0 0.0
2014-Jul-24 11:33N 38°44' W 009°06'0 0.0
2014-Jul-24 10:33N 38°44' W 009°06'0 0.0
2014-Jul-24 09:32N 38°44' W 009°06'0 0.0
2014-Jul-24 08:33N 38°44' W 009°06'0 0.0
2014-Jul-24 07:33N 38°44' W 009°06'2 1.7
2014-Jul-24 06:33N 38°42' W 009°08'2712.8
2014-Jul-24 04:26N 38°39' W 009°43'1615.1
2014-Jul-24 03:23N 38°55' W 009°44'156 5.1
2014-Jul-22 20:29N 41°27' W 008°58'1414.7
2014-Jul-22 19:33N 41°39' W 009°07'178 9.8
2014-Jul-22 01:26N 43°44' W 006°14'1516.5
2014-Jul-22 00:33N 43°42' W 005°54'1312.6
2014-Jul-21 23:33N 43°33' W 005°41'0 0.0
2014-Jul-21 18:34N 43°34' W 005°41'6 6.0
2014-Jul-21 17:34N 43°40' W 005°41'47013.3
2014-Jul-20 06:10N 50°29' W 000°02'1415.8
2014-Jul-20 05:18N 50°33' E 000°19'1115.0
2014-Jul-20 04:34N 50°36' E 000°36'1514.5
2014-Jul-20 03:33N 50°44' E 000°55'1815.1
2014-Jul-20 02:21N 50°55' E 001°18'1316.8
2014-Jul-20 01:33N 51°05' E 001°33'1717.4
2014-Jul-20 00:34N 51°18' E 001°51'1616.4
2014-Jul-19 23:34N 51°31' E 002°07'1615.6
2014-Jul-19 22:32N 51°43' E 002°24'2713.7
2014-Jul-19 20:33N 52°01' E 002°56'1714.9
2014-Jul-19 19:26N 52°03' E 003°23'1314.7
2014-Jul-19 18:33N 52°04' E 003°44'1414.4
2014-Jul-19 17:33N 51°59' E 004°05'2 1.5
2014-Jul-19 16:32N 51°58' E 004°03'0 0.0
2014-Jul-19 15:33N 51°58' E 004°03'0 0.0
2014-Jul-19 14:25N 51°58' E 004°03'0 0.0
2014-Jul-19 13:30N 51°58' E 004°03'0 0.0
2014-Jul-19 12:30N 51°58' E 004°03'0 0.0
2014-Jul-19 11:33N 51°58' E 004°03'0 0.0
2014-Jul-19 10:32N 51°58' E 004°03'0 0.0
2014-Jul-19 09:30N 51°58' E 004°03'0 0.0
2014-Jul-19 08:30N 51°58' E 004°03'0 0.0
2014-Jul-19 07:19N 51°58' E 004°03'0 0.0
2014-Jul-19 06:22N 51°58' E 004°03'0 0.0
2014-Jul-19 05:13N 51°58' E 004°03'0 0.0
2014-Jul-19 04:28N 51°58' E 004°03'0 0.0
2014-Jul-19 03:19N 51°58' E 004°03'0 0.0
2014-Jul-19 02:31N 51°58' E 004°03'0 0.0
2014-Jul-19 01:28N 51°58' E 004°03'0 0.0
2014-Jul-19 00:31N 51°58' E 004°03'0 0.0
2014-Jul-18 23:25N 51°58' E 004°03'0 0.0
2014-Jul-18 22:25N 51°58' E 004°03'2 1.8
2014-Jul-18 21:33N 51°58' E 004°05'1211.9
2014-Jul-18 20:33N 52°03' E 003°48'1212.0
2014-Jul-18 19:34N 52°15' E 003°47'1110.6
2014-Jul-18 18:33N 52°26' E 003°50'1111.0
2014-Jul-18 17:33N 52°37' E 003°52'1512.3
2014-Jul-18 16:22N 52°51' E 003°57'1012.3
2014-Jul-18 15:33N 52°60' E 004°06'1313.2
2014-Jul-18 14:34N 53°08' E 004°22'1313.1
2014-Jul-18 13:33N 53°20' E 004°30'1212.5
2014-Jul-18 12:34N 53°32' E 004°37'1414.3
2014-Jul-18 11:34N 53°46' E 004°45'1616.2
2014-Jul-18 10:34N 54°01' E 004°53'1716.4
2014-Jul-18 09:33N 54°17' E 005°03'1816.8
2014-Jul-18 08:28N 54°32' E 005°20'1617.1
2014-Jul-18 07:31N 54°46' E 005°35'3535.5
2014-Jul-18 06:32N 55°15' E 006°08'22 9.1
2014-Jul-18 04:09N 55°33' E 006°29'1317.0
2014-Jul-18 03:25N 55°44' E 006°41'15915.9
2014-Jul-17 17:26N 57°41' E 009°57'1415.7
2014-Jul-17 16:33N 57°48' E 010°20'1515.4
2014-Jul-17 15:34N 57°48' E 010°48'1615.6
2014-Jul-17 14:33N 57°42' E 011°15'1514.8
2014-Jul-17 13:34N 57°39' E 011°42'6 5.6
2014-Jul-17 12:33N 57°41' E 011°52'0 0.0
2014-Jul-17 11:33N 57°41' E 011°52'0 0.0
2014-Jul-17 10:32N 57°41' E 011°52'0 0.0
2014-Jul-17 09:32N 57°41' E 011°52'0 0.0
2014-Jul-17 08:32N 57°41' E 011°52'0 0.0
2014-Jul-17 07:32N 57°41' E 011°52'0 0.0
2014-Jul-17 06:32N 57°41' E 011°52'0 0.0
2014-Jul-17 05:32N 57°41' E 011°52'0 0.0
2014-Jul-17 04:33N 57°41' E 011°52'10 9.5
2014-Jul-17 03:33N 57°35' E 011°39'1515.2
2014-Jul-17 02:33N 57°19' E 011°39'1615.5
2014-Jul-17 01:33N 57°04' E 011°43'1515.3
2014-Jul-17 00:33N 56°49' E 011°52'1514.3
2014-Jul-16 23:30N 56°36' E 011°40'35 2.9
2014-Jul-16 11:19N 56°09' E 010°59'1013.2
2014-Jul-16 10:32N 56°18' E 011°10'2713.4
2014-Jul-16 08:33N 56°38' E 011°41'1212.4
2014-Jul-16 07:33N 56°49' E 011°50'1414.3
2014-Jul-16 06:33N 57°03' E 011°40'1414.0
2014-Jul-16 05:33N 57°16' E 011°32'1413.5
2014-Jul-16 04:33N 57°28' E 011°21'1413.5
2014-Jul-16 03:33N 57°38' E 011°04'1514.6
2014-Jul-16 02:33N 57°47' E 010°43'1615.6
2014-Jul-16 01:33N 57°43' E 010°14'  

Dump ship's entire track history